GRL225 BGAA-BGSF
Flight info
| Callsign | GRL225 |
|---|---|
| Flight time | 0h 32m |
| Altitude | 16000 |
| Route | AA UW22 NYGAR UT587 LILGO DCT BELZI |
| Aircraft | DH8B/M-SDFGR/S |
Departure
| Time | 2026-04-29 13:58 |
|---|---|
| Airport | Aasiaat Airport (BGAA) |
Arrival
| Time | 2026-04-29 14:30 |
|---|---|
| Airport | Kangerlussuaq International Airport (BGSF) |
| Time | Latitude | Longitude | Altitude | Speed | Heading |
|---|---|---|---|---|---|
| 2026-04-29 13:43 | 68.72056 | -52.79229 | 77 ft | 0 kts | 167° |
| 2026-04-29 13:53 | 68.72055 | -52.79229 | 77 ft | 2 kts | 176° |
| 2026-04-29 13:53 | 68.72068 | -52.79332 | 73 ft | 5 kts | 335° |
| 2026-04-29 13:54 | 68.72069 | -52.79333 | 74 ft | 0 kts | 336° |
| 2026-04-29 13:56 | 68.72096 | -52.79355 | 73 ft | 12 kts | 350° |
| 2026-04-29 13:56 | 68.72144 | -52.79060 | 66 ft | 23 kts | 77° |
| 2026-04-29 13:56 | 68.72181 | -52.78595 | 67 ft | 27 kts | 79° |
| 2026-04-29 13:56 | 68.72220 | -52.78059 | 66 ft | 29 kts | 77° |
| 2026-04-29 13:57 | 68.72258 | -52.77603 | 60 ft | 9 kts | 56° |
| 2026-04-29 13:57 | 68.72259 | -52.77549 | 64 ft | 1 kts | 233° |
| 2026-04-29 13:57 | 68.72254 | -52.77607 | 67 ft | 0 kts | 258° |
| 2026-04-29 13:57 | 68.72200 | -52.78343 | 58 ft | 98 kts | 258° |
| 2026-04-29 13:58 | 68.72040 | -52.80827 | 243 ft | 153 kts | 261° |
| 2026-04-29 13:58 | 68.71851 | -52.83836 | 883 ft | 166 kts | 261° |
| 2026-04-29 13:58 | 68.71691 | -52.87062 | 1621 ft | 171 kts | 261° |
| 2026-04-29 13:58 | 68.71171 | -52.89827 | 2581 ft | 167 kts | 223° |
| 2026-04-29 13:59 | 68.70138 | -52.91289 | 3400 ft | 168 kts | 200° |
| 2026-04-29 13:59 | 68.69003 | -52.91627 | 4209 ft | 178 kts | 171° |
| 2026-04-29 13:59 | 68.67949 | -52.89810 | 5020 ft | 178 kts | 130° |
| 2026-04-29 13:59 | 68.67069 | -52.87464 | 5918 ft | 179 kts | 152° |
| 2026-04-29 14:00 | 68.65922 | -52.86109 | 6759 ft | 181 kts | 161° |
| 2026-04-29 14:00 | 68.64764 | -52.84671 | 7546 ft | 185 kts | 154° |
| 2026-04-29 14:00 | 68.63611 | -52.83040 | 8403 ft | 187 kts | 156° |
| 2026-04-29 14:00 | 68.62417 | -52.81539 | 9253 ft | 191 kts | 157° |
| 2026-04-29 14:01 | 68.61208 | -52.79948 | 10119 ft | 194 kts | 155° |
| 2026-04-29 14:01 | 68.59987 | -52.78323 | 10906 ft | 197 kts | 156° |
| 2026-04-29 14:01 | 68.58750 | -52.76748 | 11677 ft | 201 kts | 155° |
| 2026-04-29 14:01 | 68.57481 | -52.75058 | 12515 ft | 204 kts | 155° |
| 2026-04-29 14:02 | 68.56183 | -52.73393 | 13352 ft | 208 kts | 156° |
| 2026-04-29 14:02 | 68.54863 | -52.71663 | 14165 ft | 212 kts | 155° |
| 2026-04-29 14:02 | 68.53519 | -52.69913 | 14950 ft | 216 kts | 156° |
| 2026-04-29 14:02 | 68.52152 | -52.68156 | 15740 ft | 219 kts | 156° |
| 2026-04-29 14:03 | 68.50723 | -52.66299 | 16179 ft | 241 kts | 157° |
| 2026-04-29 14:03 | 68.49098 | -52.64263 | 16190 ft | 270 kts | 157° |
| 2026-04-29 14:03 | 68.47376 | -52.62077 | 16216 ft | 282 kts | 157° |
| 2026-04-29 14:03 | 68.45564 | -52.59791 | 16258 ft | 291 kts | 157° |
| 2026-04-29 14:04 | 68.43708 | -52.57461 | 16297 ft | 297 kts | 157° |
| 2026-04-29 14:04 | 68.41827 | -52.55054 | 16325 ft | 302 kts | 156° |
| 2026-04-29 14:04 | 68.39920 | -52.52591 | 16340 ft | 305 kts | 156° |
| 2026-04-29 14:04 | 68.37990 | -52.50129 | 16343 ft | 308 kts | 156° |
| 2026-04-29 14:05 | 68.36041 | -52.47656 | 16329 ft | 310 kts | 156° |
| 2026-04-29 14:05 | 68.34084 | -52.45158 | 16308 ft | 312 kts | 156° |
| 2026-04-29 14:05 | 68.32110 | -52.42644 | 16270 ft | 313 kts | 156° |
| 2026-04-29 14:05 | 68.30163 | -52.40178 | 16224 ft | 315 kts | 156° |
| 2026-04-29 14:06 | 68.28179 | -52.37661 | 16172 ft | 316 kts | 156° |
| 2026-04-29 14:06 | 68.26192 | -52.35147 | 16166 ft | 315 kts | 156° |
| 2026-04-29 14:06 | 68.24208 | -52.32636 | 16171 ft | 315 kts | 156° |
| 2026-04-29 14:06 | 68.22215 | -52.30151 | 16166 ft | 315 kts | 158° |
| 2026-04-29 14:07 | 68.20206 | -52.27862 | 16170 ft | 314 kts | 160° |
| 2026-04-29 14:07 | 68.18177 | -52.25658 | 16162 ft | 315 kts | 160° |
| 2026-04-29 14:07 | 68.16160 | -52.23368 | 16162 ft | 315 kts | 158° |
| 2026-04-29 14:07 | 68.14179 | -52.21053 | 16162 ft | 315 kts | 159° |
| 2026-04-29 14:08 | 68.12162 | -52.18758 | 16161 ft | 315 kts | 159° |
| 2026-04-29 14:08 | 68.10141 | -52.16486 | 16152 ft | 315 kts | 159° |
| 2026-04-29 14:08 | 68.08125 | -52.14202 | 16157 ft | 315 kts | 159° |
| 2026-04-29 14:08 | 68.06115 | -52.11909 | 16153 ft | 311 kts | 159° |
| 2026-04-29 14:09 | 68.04138 | -52.09646 | 16140 ft | 307 kts | 159° |
| 2026-04-29 14:09 | 68.02180 | -52.07432 | 16136 ft | 304 kts | 159° |
| 2026-04-29 14:09 | 68.00228 | -52.05240 | 16132 ft | 302 kts | 159° |
| 2026-04-29 14:09 | 67.98297 | -52.03071 | 16137 ft | 301 kts | 159° |
| 2026-04-29 14:10 | 67.96401 | -52.00938 | 16132 ft | 300 kts | 159° |
| 2026-04-29 14:10 | 67.94472 | -51.98779 | 16131 ft | 300 kts | 159° |
| 2026-04-29 14:10 | 67.92549 | -51.96641 | 16136 ft | 300 kts | 159° |
| 2026-04-29 14:10 | 67.90633 | -51.94499 | 16136 ft | 299 kts | 159° |
| 2026-04-29 14:11 | 67.88711 | -51.92352 | 16137 ft | 299 kts | 159° |
| 2026-04-29 14:11 | 67.86791 | -51.90228 | 16120 ft | 299 kts | 159° |
| 2026-04-29 14:11 | 67.84877 | -51.88112 | 16134 ft | 298 kts | 159° |
| 2026-04-29 14:11 | 67.82969 | -51.85990 | 16131 ft | 297 kts | 159° |
| 2026-04-29 14:12 | 67.81065 | -51.83882 | 16130 ft | 297 kts | 159° |
| 2026-04-29 14:12 | 67.79186 | -51.81820 | 16121 ft | 296 kts | 159° |
| 2026-04-29 14:12 | 67.77283 | -51.79725 | 16126 ft | 296 kts | 159° |
| 2026-04-29 14:12 | 67.75379 | -51.77633 | 16132 ft | 296 kts | 159° |
| 2026-04-29 14:13 | 67.73474 | -51.75544 | 16134 ft | 297 kts | 159° |
| 2026-04-29 14:13 | 67.71561 | -51.73454 | 16130 ft | 298 kts | 159° |
| 2026-04-29 14:13 | 67.69641 | -51.71357 | 16134 ft | 298 kts | 159° |
| 2026-04-29 14:13 | 67.67733 | -51.69274 | 16131 ft | 298 kts | 159° |
| 2026-04-29 14:14 | 67.65818 | -51.67184 | 16128 ft | 298 kts | 159° |
| 2026-04-29 14:14 | 67.63904 | -51.65109 | 16131 ft | 298 kts | 160° |
| 2026-04-29 14:14 | 67.62007 | -51.63056 | 16127 ft | 298 kts | 159° |
| 2026-04-29 14:14 | 67.60094 | -51.60984 | 16130 ft | 298 kts | 159° |
| 2026-04-29 14:15 | 67.58180 | -51.58914 | 16128 ft | 298 kts | 159° |
| 2026-04-29 14:15 | 67.56258 | -51.56844 | 16129 ft | 298 kts | 159° |
| 2026-04-29 14:15 | 67.54340 | -51.54774 | 16132 ft | 298 kts | 159° |
| 2026-04-29 14:15 | 67.52426 | -51.52713 | 16127 ft | 298 kts | 160° |
| 2026-04-29 14:16 | 67.50504 | -51.50655 | 16128 ft | 298 kts | 160° |
| 2026-04-29 14:16 | 67.48581 | -51.48595 | 16121 ft | 299 kts | 160° |
| 2026-04-29 14:16 | 67.46664 | -51.46548 | 16113 ft | 299 kts | 160° |
| 2026-04-29 14:16 | 67.44738 | -51.44509 | 15806 ft | 307 kts | 160° |
| 2026-04-29 14:17 | 67.42699 | -51.42767 | 15523 ft | 310 kts | 174° |
| 2026-04-29 14:17 | 67.40594 | -51.42703 | 15251 ft | 297 kts | 185° |
| 2026-04-29 14:17 | 67.38548 | -51.42815 | 14930 ft | 292 kts | 181° |
| 2026-04-29 14:17 | 67.36530 | -51.42453 | 14611 ft | 289 kts | 176° |
| 2026-04-29 14:18 | 67.34540 | -51.42011 | 14295 ft | 286 kts | 179° |
| 2026-04-29 14:18 | 67.32565 | -51.41724 | 13971 ft | 284 kts | 179° |
| 2026-04-29 14:18 | 67.30589 | -51.41487 | 13456 ft | 286 kts | 180° |
| 2026-04-29 14:18 | 67.28623 | -51.41265 | 12887 ft | 288 kts | 180° |
| 2026-04-29 14:19 | 67.26627 | -51.41050 | 12330 ft | 287 kts | 180° |
| 2026-04-29 14:19 | 67.24631 | -51.40818 | 11783 ft | 286 kts | 179° |
| 2026-04-29 14:19 | 67.22646 | -51.40545 | 11226 ft | 285 kts | 179° |
| 2026-04-29 14:19 | 67.20675 | -51.40267 | 10700 ft | 283 kts | 179° |
| 2026-04-29 14:20 | 67.18717 | -51.40012 | 10177 ft | 281 kts | 180° |
| 2026-04-29 14:20 | 67.16771 | -51.39773 | 9610 ft | 278 kts | 179° |
| 2026-04-29 14:20 | 67.14853 | -51.39517 | 9028 ft | 275 kts | 179° |
| 2026-04-29 14:20 | 67.12955 | -51.39256 | 8462 ft | 272 kts | 179° |
| 2026-04-29 14:21 | 67.11076 | -51.39019 | 7900 ft | 268 kts | 178° |
| 2026-04-29 14:21 | 67.09250 | -51.38781 | 7354 ft | 265 kts | 178° |
| 2026-04-29 14:21 | 67.07418 | -51.38541 | 6812 ft | 262 kts | 177° |
| 2026-04-29 14:21 | 67.05604 | -51.38465 | 6254 ft | 259 kts | 183° |
| 2026-04-29 14:22 | 67.03822 | -51.38949 | 5693 ft | 251 kts | 187° |
| 2026-04-29 14:22 | 67.02156 | -51.39520 | 5412 ft | 230 kts | 187° |
| 2026-04-29 14:22 | 67.00651 | -51.40020 | 5378 ft | 208 kts | 187° |
| 2026-04-29 14:22 | 66.99258 | -51.40465 | 5365 ft | 197 kts | 186° |
| 2026-04-29 14:23 | 66.97948 | -51.40865 | 5366 ft | 188 kts | 186° |
| 2026-04-29 14:23 | 66.96674 | -51.41228 | 5365 ft | 182 kts | 186° |
| 2026-04-29 14:23 | 66.95364 | -51.41518 | 4956 ft | 195 kts | 177° |
| 2026-04-29 14:23 | 66.94073 | -51.40424 | 4533 ft | 200 kts | 143° |
| 2026-04-29 14:24 | 66.93213 | -51.37692 | 4139 ft | 201 kts | 112° |
| 2026-04-29 14:24 | 66.92853 | -51.34240 | 3800 ft | 202 kts | 103° |
| 2026-04-29 14:24 | 66.92570 | -51.30751 | 3488 ft | 200 kts | 103° |
| 2026-04-29 14:24 | 66.92549 | -51.27271 | 3129 ft | 198 kts | 76° |
| 2026-04-29 14:25 | 66.93228 | -51.24398 | 2997 ft | 189 kts | 49° |
| 2026-04-29 14:25 | 66.93879 | -51.21614 | 2805 ft | 185 kts | 79° |
| 2026-04-29 14:25 | 66.93932 | -51.18343 | 2533 ft | 186 kts | 93° |
| 2026-04-29 14:25 | 66.93891 | -51.15014 | 2208 ft | 189 kts | 92° |
| 2026-04-29 14:26 | 66.93863 | -51.11696 | 2032 ft | 184 kts | 92° |
| 2026-04-29 14:26 | 66.93836 | -51.08506 | 1984 ft | 177 kts | 92° |
| 2026-04-29 14:26 | 66.93935 | -51.05414 | 1977 ft | 175 kts | 80° |
| 2026-04-29 14:26 | 66.94337 | -51.02557 | 1944 ft | 172 kts | 61° |
| 2026-04-29 14:27 | 66.94954 | -51.00019 | 2030 ft | 162 kts | 61° |
| 2026-04-29 14:27 | 66.95473 | -50.97518 | 1896 ft | 164 kts | 61° |
| 2026-04-29 14:27 | 66.96085 | -50.95034 | 1890 ft | 167 kts | 59° |
| 2026-04-29 14:28 | 66.97297 | -50.89605 | 1605 ft | 191 kts | 65° |
| 2026-04-29 14:28 | 66.97885 | -50.86509 | 1408 ft | 189 kts | 65° |
| 2026-04-29 14:28 | 66.98515 | -50.83611 | 1068 ft | 184 kts | 60° |
| 2026-04-29 14:28 | 66.99109 | -50.81093 | 856 ft | 148 kts | 62° |
| 2026-04-29 14:29 | 66.99605 | -50.78712 | 540 ft | 157 kts | 64° |
| 2026-04-29 14:29 | 67.00118 | -50.76414 | 333 ft | 139 kts | 64° |
| 2026-04-29 14:29 | 67.00561 | -50.74317 | 166 ft | 134 kts | 65° |
| 2026-04-29 14:29 | 67.00965 | -50.72363 | 146 ft | 110 kts | 62° |
| 2026-04-29 14:30 | 67.01149 | -50.71485 | 155 ft | 56 kts | 59° |
| 2026-04-29 14:30 | 67.01311 | -50.70765 | 158 ft | 15 kts | 59° |
| 2026-04-29 14:30 | 67.01384 | -50.70431 | 160 ft | 20 kts | 62° |
| 2026-04-29 14:30 | 67.01312 | -50.70351 | 159 ft | 12 kts | 182° |
| 2026-04-29 14:31 | 67.01236 | -50.70300 | 157 ft | 12 kts | 163° |
| 2026-04-29 14:31 | 67.01165 | -50.70214 | 156 ft | 10 kts | 107° |
| 2026-04-29 14:31 | 67.01196 | -50.70009 | 155 ft | 15 kts | 60° |
| 2026-04-29 14:31 | 67.01252 | -50.69760 | 154 ft | 17 kts | 65° |
| 2026-04-29 14:32 | 67.01279 | -50.69567 | 154 ft | 9 kts | 101° |
| 2026-04-29 14:32 | 67.01237 | -50.69551 | 154 ft | 9 kts | 218° |
| 2026-04-29 14:32 | 67.01234 | -50.69580 | 154 ft | 0 kts | 302° |